sensor_id;sensor_type;location;lat;lon;timestamp;P1;durP1;ratioP1;P2;durP2;ratioP2
81217;SDS011;70689;52.494;13.420;2023-10-09T00:02:09;4.57;;;2.40;;
81217;SDS011;70689;52.494;13.420;2023-10-09T00:04:39;5.00;;;2.60;;
81217;SDS011;70689;52.494;13.420;2023-10-09T00:07:10;5.00;;;2.80;;
81217;SDS011;70689;52.494;13.420;2023-10-09T00:09:38;7.13;;;3.60;;
81217;SDS011;70689;52.494;13.420;2023-10-09T00:12:16;5.35;;;3.00;;
81217;SDS011;70689;52.494;13.420;2023-10-09T00:14:52;6.85;;;3.33;;
81217;SDS011;70689;52.494;13.420;2023-10-09T00:17:20;7.20;;;3.38;;
81217;SDS011;70689;52.494;13.420;2023-10-09T00:19:47;5.05;;;3.13;;
81217;SDS011;70689;52.494;13.420;2023-10-09T00:22:14;5.55;;;3.50;;
81217;SDS011;70689;52.494;13.420;2023-10-09T00:25:03;4.15;;;2.75;;
81217;SDS011;70689;52.494;13.420;2023-10-09T00:27:39;5.32;;;3.20;;
81217;SDS011;70689;52.494;13.420;2023-10-09T00:30:08;7.50;;;3.08;;
81217;SDS011;70689;52.494;13.420;2023-10-09T00:32:36;4.28;;;3.15;;
81217;SDS011;70689;52.494;13.420;2023-10-09T00:35:02;5.25;;;3.00;;
81217;SDS011;70689;52.494;13.420;2023-10-09T00:37:48;7.28;;;3.30;;
81217;SDS011;70689;52.494;13.420;2023-10-09T00:40:16;5.40;;;3.00;;
81217;SDS011;70689;52.494;13.420;2023-10-09T00:42:47;5.07;;;2.92;;
81217;SDS011;70689;52.494;13.420;2023-10-09T00:45:13;5.30;;;3.15;;
81217;SDS011;70689;52.494;13.420;2023-10-09T00:47:49;6.22;;;3.70;;
81217;SDS011;70689;52.494;13.420;2023-10-09T00:50:16;6.78;;;3.40;;
81217;SDS011;70689;52.494;13.420;2023-10-09T00:52:46;6.80;;;4.13;;
81217;SDS011;70689;52.494;13.420;2023-10-09T00:55:33;7.97;;;3.38;;
81217;SDS011;70689;52.494;13.420;2023-10-09T00:58:08;5.68;;;3.40;;
81217;SDS011;70689;52.494;13.420;2023-10-09T01:00:39;6.18;;;3.63;;
81217;SDS011;70689;52.494;13.420;2023-10-09T01:03:08;8.02;;;3.42;;
81217;SDS011;70689;52.494;13.420;2023-10-09T01:08:41;4.55;;;2.80;;
81217;SDS011;70689;52.494;13.420;2023-10-09T01:11:10;5.97;;;3.28;;
81217;SDS011;70689;52.494;13.420;2023-10-09T01:13:43;6.40;;;2.85;;
81217;SDS011;70689;52.494;13.420;2023-10-09T01:16:16;4.72;;;3.13;;
81217;SDS011;70689;52.494;13.420;2023-10-09T01:18:46;5.63;;;3.20;;
81217;SDS011;70689;52.494;13.420;2023-10-09T01:21:19;8.05;;;3.20;;
81217;SDS011;70689;52.494;13.420;2023-10-09T01:23:52;6.65;;;3.60;;
81217;SDS011;70689;52.494;13.420;2023-10-09T01:26:30;6.55;;;3.55;;
81217;SDS011;70689;52.494;13.420;2023-10-09T01:29:16;5.07;;;3.30;;
81217;SDS011;70689;52.494;13.420;2023-10-09T01:34:19;4.68;;;3.08;;
81217;SDS011;70689;52.494;13.420;2023-10-09T01:37:10;4.85;;;2.97;;
81217;SDS011;70689;52.494;13.420;2023-10-09T01:39:40;5.05;;;3.38;;
81217;SDS011;70689;52.494;13.420;2023-10-09T01:42:07;4.63;;;2.97;;
81217;SDS011;70689;52.494;13.420;2023-10-09T01:44:34;4.72;;;3.25;;
81217;SDS011;70689;52.494;13.420;2023-10-09T01:47:02;6.28;;;2.85;;
81217;SDS011;70689;52.494;13.420;2023-10-09T01:49:39;6.28;;;3.28;;
81217;SDS011;70689;52.494;13.420;2023-10-09T01:52:09;4.47;;;3.17;;
81217;SDS011;70689;52.494;13.420;2023-10-09T01:54:41;7.75;;;3.42;;
81217;SDS011;70689;52.494;13.420;2023-10-09T01:57:12;6.25;;;3.13;;
81217;SDS011;70689;52.494;13.420;2023-10-09T01:59:41;9.05;;;3.35;;
81217;SDS011;70689;52.494;13.420;2023-10-09T02:02:17;4.13;;;3.00;;
81217;SDS011;70689;52.494;13.420;2023-10-09T02:04:57;5.07;;;3.15;;
81217;SDS011;70689;52.494;13.420;2023-10-09T02:07:51;4.90;;;3.03;;
81217;SDS011;70689;52.494;13.420;2023-10-09T02:10:17;5.47;;;3.30;;
81217;SDS011;70689;52.494;13.420;2023-10-09T02:12:50;6.00;;;3.22;;
81217;SDS011;70689;52.494;13.420;2023-10-09T02:15:26;6.78;;;3.42;;
81217;SDS011;70689;52.494;13.420;2023-10-09T02:18:07;6.72;;;3.10;;
81217;SDS011;70689;52.494;13.420;2023-10-09T02:20:47;9.23;;;3.60;;
81217;SDS011;70689;52.494;13.420;2023-10-09T02:23:21;6.30;;;3.60;;
81217;SDS011;70689;52.494;13.420;2023-10-09T02:25:55;5.80;;;3.30;;
81217;SDS011;70689;52.494;13.420;2023-10-09T02:28:26;6.18;;;3.60;;
81217;SDS011;70689;52.494;13.420;2023-10-09T02:30:57;7.65;;;3.35;;
81217;SDS011;70689;52.494;13.420;2023-10-09T02:33:26;6.18;;;3.50;;
81217;SDS011;70689;52.494;13.420;2023-10-09T02:35:56;5.40;;;3.10;;
81217;SDS011;70689;52.494;13.420;2023-10-09T02:38:24;7.13;;;3.40;;
81217;SDS011;70689;52.494;13.420;2023-10-09T02:40:51;5.25;;;3.38;;
81217;SDS011;70689;52.494;13.420;2023-10-09T02:43:30;6.38;;;3.78;;
81217;SDS011;70689;52.494;13.420;2023-10-09T02:46:05;6.22;;;3.25;;
81217;SDS011;70689;52.494;13.420;2023-10-09T02:48:39;6.28;;;3.50;;
81217;SDS011;70689;52.494;13.420;2023-10-09T02:51:10;8.15;;;3.50;;
81217;SDS011;70689;52.494;13.420;2023-10-09T02:53:46;6.28;;;3.15;;
81217;SDS011;70689;52.494;13.420;2023-10-09T02:56:15;8.95;;;3.70;;
81217;SDS011;70689;52.494;13.420;2023-10-09T02:58:42;7.00;;;4.32;;
81217;SDS011;70689;52.494;13.420;2023-10-09T03:01:09;5.75;;;3.40;;
81217;SDS011;70689;52.494;13.420;2023-10-09T03:03:38;7.00;;;3.67;;
81217;SDS011;70689;52.494;13.420;2023-10-09T03:06:06;8.18;;;4.05;;
81217;SDS011;70689;52.494;13.420;2023-10-09T03:08:37;6.18;;;3.65;;
81217;SDS011;70689;52.494;13.420;2023-10-09T03:11:02;6.90;;;3.65;;
81217;SDS011;70689;52.494;13.420;2023-10-09T03:13:31;5.47;;;3.60;;
81217;SDS011;70689;52.494;13.420;2023-10-09T03:15:58;7.82;;;3.78;;
81217;SDS011;70689;52.494;13.420;2023-10-09T03:18:24;7.00;;;3.30;;
81217;SDS011;70689;52.494;13.420;2023-10-09T03:20:49;5.00;;;3.15;;
81217;SDS011;70689;52.494;13.420;2023-10-09T03:23:15;6.07;;;3.45;;
81217;SDS011;70689;52.494;13.420;2023-10-09T03:25:41;8.18;;;3.50;;
81217;SDS011;70689;52.494;13.420;2023-10-09T03:28:10;5.50;;;3.17;;
81217;SDS011;70689;52.494;13.420;2023-10-09T03:30:37;9.10;;;3.45;;
81217;SDS011;70689;52.494;13.420;2023-10-09T03:33:05;6.82;;;3.53;;
81217;SDS011;70689;52.494;13.420;2023-10-09T03:35:32;5.60;;;3.70;;
81217;SDS011;70689;52.494;13.420;2023-10-09T03:37:59;7.13;;;3.70;;
81217;SDS011;70689;52.494;13.420;2023-10-09T03:40:31;10.93;;;7.03;;
81217;SDS011;70689;52.494;13.420;2023-10-09T03:42:57;9.00;;;3.60;;
81217;SDS011;70689;52.494;13.420;2023-10-09T03:45:23;5.57;;;3.45;;
81217;SDS011;70689;52.494;13.420;2023-10-09T03:47:51;7.28;;;3.75;;
81217;SDS011;70689;52.494;13.420;2023-10-09T03:50:22;8.15;;;3.78;;
81217;SDS011;70689;52.494;13.420;2023-10-09T03:53:01;5.05;;;3.03;;
81217;SDS011;70689;52.494;13.420;2023-10-09T03:55:28;6.43;;;3.63;;
81217;SDS011;70689;52.494;13.420;2023-10-09T03:57:55;6.40;;;3.53;;
81217;SDS011;70689;52.494;13.420;2023-10-09T04:00:22;6.82;;;3.55;;
81217;SDS011;70689;52.494;13.420;2023-10-09T04:02:53;6.18;;;3.45;;
81217;SDS011;70689;52.494;13.420;2023-10-09T04:05:19;6.40;;;3.58;;
81217;SDS011;70689;52.494;13.420;2023-10-09T04:07:45;8.07;;;3.70;;
81217;SDS011;70689;52.494;13.420;2023-10-09T04:10:10;6.10;;;3.53;;
81217;SDS011;70689;52.494;13.420;2023-10-09T04:12:58;7.60;;;3.20;;
81217;SDS011;70689;52.494;13.420;2023-10-09T04:15:25;6.50;;;3.30;;
81217;SDS011;70689;52.494;13.420;2023-10-09T04:17:55;7.07;;;3.95;;
81217;SDS011;70689;52.494;13.420;2023-10-09T04:20:21;7.60;;;3.13;;
81217;SDS011;70689;52.494;13.420;2023-10-09T04:22:47;5.55;;;3.15;;
81217;SDS011;70689;52.494;13.420;2023-10-09T04:25:16;5.57;;;3.10;;
81217;SDS011;70689;52.494;13.420;2023-10-09T04:27:51;5.43;;;3.22;;
81217;SDS011;70689;52.494;13.420;2023-10-09T04:30:18;4.60;;;3.20;;
81217;SDS011;70689;52.494;13.420;2023-10-09T04:32:44;7.35;;;3.28;;
81217;SDS011;70689;52.494;13.420;2023-10-09T04:35:13;7.60;;;3.60;;
81217;SDS011;70689;52.494;13.420;2023-10-09T04:37:48;5.50;;;3.58;;
81217;SDS011;70689;52.494;13.420;2023-10-09T04:40:32;5.63;;;3.65;;
81217;SDS011;70689;52.494;13.420;2023-10-09T04:43:16;7.13;;;3.33;;
81217;SDS011;70689;52.494;13.420;2023-10-09T04:45:47;7.68;;;3.67;;
81217;SDS011;70689;52.494;13.420;2023-10-09T04:48:33;4.55;;;3.50;;
81217;SDS011;70689;52.494;13.420;2023-10-09T04:51:02;7.22;;;3.17;;
81217;SDS011;70689;52.494;13.420;2023-10-09T04:53:48;7.43;;;3.60;;
81217;SDS011;70689;52.494;13.420;2023-10-09T04:56:34;5.68;;;3.88;;
81217;SDS011;70689;52.494;13.420;2023-10-09T04:59:16;5.75;;;3.50;;
81217;SDS011;70689;52.494;13.420;2023-10-09T05:01:49;5.32;;;3.60;;
81217;SDS011;70689;52.494;13.420;2023-10-09T05:07:05;7.50;;;3.63;;
81217;SDS011;70689;52.494;13.420;2023-10-09T05:09:50;6.20;;;3.72;;
81217;SDS011;70689;52.494;13.420;2023-10-09T05:12:32;7.88;;;3.67;;
81217;SDS011;70689;52.494;13.420;2023-10-09T05:14:57;6.32;;;3.22;;
81217;SDS011;70689;52.494;13.420;2023-10-09T05:17:38;6.70;;;3.40;;
81217;SDS011;70689;52.494;13.420;2023-10-09T05:20:05;5.65;;;3.08;;
81217;SDS011;70689;52.494;13.420;2023-10-09T05:22:49;4.82;;;3.13;;
81217;SDS011;70689;52.494;13.420;2023-10-09T05:25:28;7.93;;;3.85;;
81217;SDS011;70689;52.494;13.420;2023-10-09T05:28:16;7.53;;;3.63;;
81217;SDS011;70689;52.494;13.420;2023-10-09T05:30:57;11.68;;;7.45;;
81217;SDS011;70689;52.494;13.420;2023-10-09T05:33:41;5.53;;;3.25;;
81217;SDS011;70689;52.494;13.420;2023-10-09T05:36:10;5.88;;;3.72;;
81217;SDS011;70689;52.494;13.420;2023-10-09T05:38:51;7.13;;;3.60;;
81217;SDS011;70689;52.494;13.420;2023-10-09T05:41:35;7.40;;;4.00;;
81217;SDS011;70689;52.494;13.420;2023-10-09T05:44:18;5.32;;;3.38;;
81217;SDS011;70689;52.494;13.420;2023-10-09T05:47:02;9.15;;;6.20;;
81217;SDS011;70689;52.494;13.420;2023-10-09T05:49:47;5.82;;;3.40;;
81217;SDS011;70689;52.494;13.420;2023-10-09T05:52:23;14.98;;;9.43;;
81217;SDS011;70689;52.494;13.420;2023-10-09T05:55:18;11.32;;;6.80;;
81217;SDS011;70689;52.494;13.420;2023-10-09T05:57:53;5.63;;;3.55;;
81217;SDS011;70689;52.494;13.420;2023-10-09T06:00:22;9.23;;;4.05;;
81217;SDS011;70689;52.494;13.420;2023-10-09T06:03:07;5.43;;;3.10;;
81217;SDS011;70689;52.494;13.420;2023-10-09T06:05:48;6.40;;;3.70;;
81217;SDS011;70689;52.494;13.420;2023-10-09T06:08:21;4.88;;;3.03;;
81217;SDS011;70689;52.494;13.420;2023-10-09T06:11:10;6.20;;;3.60;;
81217;SDS011;70689;52.494;13.420;2023-10-09T06:13:56;5.43;;;3.25;;
81217;SDS011;70689;52.494;13.420;2023-10-09T06:16:29;6.95;;;4.13;;
81217;SDS011;70689;52.494;13.420;2023-10-09T06:19:10;4.97;;;2.88;;
81217;SDS011;70689;52.494;13.420;2023-10-09T06:21:40;6.53;;;3.17;;
81217;SDS011;70689;52.494;13.420;2023-10-09T06:24:06;7.03;;;4.13;;
81217;SDS011;70689;52.494;13.420;2023-10-09T06:26:46;34.60;;;15.68;;
81217;SDS011;70689;52.494;13.420;2023-10-09T06:29:30;5.00;;;3.80;;
81217;SDS011;70689;52.494;13.420;2023-10-09T06:32:16;10.38;;;4.20;;
81217;SDS011;70689;52.494;13.420;2023-10-09T06:34:43;9.00;;;4.80;;
81217;SDS011;70689;52.494;13.420;2023-10-09T06:37:11;8.23;;;3.40;;
81217;SDS011;70689;52.494;13.420;2023-10-09T06:39:59;6.18;;;3.33;;
81217;SDS011;70689;52.494;13.420;2023-10-09T06:42:25;5.05;;;3.40;;
81217;SDS011;70689;52.494;13.420;2023-10-09T06:45:03;6.28;;;3.33;;
81217;SDS011;70689;52.494;13.420;2023-10-09T06:47:52;6.38;;;3.78;;
81217;SDS011;70689;52.494;13.420;2023-10-09T06:50:21;7.35;;;4.00;;
81217;SDS011;70689;52.494;13.420;2023-10-09T06:52:51;6.10;;;3.30;;
81217;SDS011;70689;52.494;13.420;2023-10-09T06:55:43;7.70;;;4.20;;
81217;SDS011;70689;52.494;13.420;2023-10-09T06:58:19;7.68;;;3.60;;
81217;SDS011;70689;52.494;13.420;2023-10-09T07:00:53;6.15;;;3.40;;
81217;SDS011;70689;52.494;13.420;2023-10-09T07:03:38;4.97;;;3.60;;
81217;SDS011;70689;52.494;13.420;2023-10-09T07:06:17;5.18;;;3.35;;
81217;SDS011;70689;52.494;13.420;2023-10-09T07:09:12;8.15;;;4.55;;
81217;SDS011;70689;52.494;13.420;2023-10-09T07:11:39;10.55;;;5.20;;
81217;SDS011;70689;52.494;13.420;2023-10-09T07:14:06;6.70;;;3.95;;
81217;SDS011;70689;52.494;13.420;2023-10-09T07:19:22;5.43;;;2.95;;
81217;SDS011;70689;52.494;13.420;2023-10-09T07:22:20;5.68;;;3.50;;
81217;SDS011;70689;52.494;13.420;2023-10-09T07:24:47;7.35;;;4.03;;
81217;SDS011;70689;52.494;13.420;2023-10-09T07:27:25;5.25;;;3.30;;
81217;SDS011;70689;52.494;13.420;2023-10-09T07:30:30;7.70;;;3.70;;
81217;SDS011;70689;52.494;13.420;2023-10-09T07:32:56;7.78;;;3.60;;
81217;SDS011;70689;52.494;13.420;2023-10-09T07:35:43;9.43;;;4.22;;
81217;SDS011;70689;52.494;13.420;2023-10-09T07:38:27;12.30;;;5.15;;
81217;SDS011;70689;52.494;13.420;2023-10-09T07:41:00;12.85;;;4.68;;
81217;SDS011;70689;52.494;13.420;2023-10-09T07:43:36;8.38;;;3.95;;
81217;SDS011;70689;52.494;13.420;2023-10-09T07:46:09;8.90;;;4.20;;
81217;SDS011;70689;52.494;13.420;2023-10-09T07:48:54;11.60;;;4.65;;
81217;SDS011;70689;52.494;13.420;2023-10-09T07:51:21;10.57;;;6.05;;
81217;SDS011;70689;52.494;13.420;2023-10-09T07:53:51;8.57;;;5.35;;
81217;SDS011;70689;52.494;13.420;2023-10-09T07:56:24;7.18;;;4.25;;
81217;SDS011;70689;52.494;13.420;2023-10-09T07:58:55;9.57;;;5.70;;
81217;SDS011;70689;52.494;13.420;2023-10-09T08:01:25;8.80;;;4.82;;
81217;SDS011;70689;52.494;13.420;2023-10-09T08:03:51;8.73;;;3.92;;
81217;SDS011;70689;52.494;13.420;2023-10-09T08:06:26;13.27;;;6.72;;
81217;SDS011;70689;52.494;13.420;2023-10-09T08:09:08;11.90;;;4.40;;
81217;SDS011;70689;52.494;13.420;2023-10-09T08:11:41;9.95;;;4.75;;
81217;SDS011;70689;52.494;13.420;2023-10-09T08:14:25;7.03;;;4.10;;
81217;SDS011;70689;52.494;13.420;2023-10-09T08:17:11;7.60;;;4.22;;
81217;SDS011;70689;52.494;13.420;2023-10-09T08:19:50;7.70;;;4.20;;
81217;SDS011;70689;52.494;13.420;2023-10-09T08:22:22;7.90;;;3.75;;
81217;SDS011;70689;52.494;13.420;2023-10-09T08:24:56;8.13;;;4.18;;
81217;SDS011;70689;52.494;13.420;2023-10-09T08:30:00;8.15;;;4.82;;
81217;SDS011;70689;52.494;13.420;2023-10-09T08:32:50;5.70;;;3.97;;
81217;SDS011;70689;52.494;13.420;2023-10-09T08:35:30;7.53;;;3.97;;
81217;SDS011;70689;52.494;13.420;2023-10-09T08:38:12;9.73;;;4.20;;
81217;SDS011;70689;52.494;13.420;2023-10-09T08:40:39;10.25;;;5.88;;
81217;SDS011;70689;52.494;13.420;2023-10-09T08:43:19;7.72;;;4.20;;
81217;SDS011;70689;52.494;13.420;2023-10-09T08:45:47;13.40;;;8.65;;
81217;SDS011;70689;52.494;13.420;2023-10-09T08:48:13;6.28;;;4.07;;
81217;SDS011;70689;52.494;13.420;2023-10-09T08:50:43;5.35;;;3.92;;
81217;SDS011;70689;52.494;13.420;2023-10-09T08:53:12;16.85;;;13.25;;
81217;SDS011;70689;52.494;13.420;2023-10-09T08:55:39;8.63;;;4.47;;
81217;SDS011;70689;52.494;13.420;2023-10-09T08:58:06;6.55;;;4.55;;
81217;SDS011;70689;52.494;13.420;2023-10-09T09:00:43;7.97;;;4.75;;
81217;SDS011;70689;52.494;13.420;2023-10-09T09:03:11;5.93;;;4.15;;
81217;SDS011;70689;52.494;13.420;2023-10-09T09:05:47;7.82;;;4.35;;
81217;SDS011;70689;52.494;13.420;2023-10-09T09:08:26;6.93;;;4.10;;
81217;SDS011;70689;52.494;13.420;2023-10-09T09:13:59;7.22;;;4.57;;
81217;SDS011;70689;52.494;13.420;2023-10-09T09:16:43;7.63;;;4.07;;
81217;SDS011;70689;52.494;13.420;2023-10-09T09:19:13;9.00;;;4.40;;
81217;SDS011;70689;52.494;13.420;2023-10-09T09:21:43;9.88;;;4.43;;
81217;SDS011;70689;52.494;13.420;2023-10-09T09:24:19;6.60;;;4.13;;
81217;SDS011;70689;52.494;13.420;2023-10-09T09:26:52;7.20;;;4.15;;
81217;SDS011;70689;52.494;13.420;2023-10-09T09:32:02;11.77;;;5.35;;
81217;SDS011;70689;52.494;13.420;2023-10-09T09:34:48;10.13;;;4.43;;
81217;SDS011;70689;52.494;13.420;2023-10-09T09:37:23;11.07;;;4.85;;
81217;SDS011;70689;52.494;13.420;2023-10-09T09:40:00;7.10;;;4.40;;
81217;SDS011;70689;52.494;13.420;2023-10-09T09:45:13;8.00;;;4.85;;
81217;SDS011;70689;52.494;13.420;2023-10-09T09:47:43;9.02;;;5.28;;
81217;SDS011;70689;52.494;13.420;2023-10-09T09:50:16;25.65;;;12.65;;
81217;SDS011;70689;52.494;13.420;2023-10-09T09:52:49;7.75;;;5.40;;
81217;SDS011;70689;52.494;13.420;2023-10-09T09:55:21;17.17;;;5.68;;
81217;SDS011;70689;52.494;13.420;2023-10-09T09:57:56;6.40;;;4.28;;
81217;SDS011;70689;52.494;13.420;2023-10-09T10:00:23;8.00;;;5.05;;
81217;SDS011;70689;52.494;13.420;2023-10-09T10:03:08;7.22;;;4.50;;
81217;SDS011;70689;52.494;13.420;2023-10-09T10:05:37;8.45;;;5.03;;
81217;SDS011;70689;52.494;13.420;2023-10-09T10:08:07;12.27;;;7.25;;
81217;SDS011;70689;52.494;13.420;2023-10-09T10:10:40;12.52;;;5.18;;
81217;SDS011;70689;52.494;13.420;2023-10-09T10:16:10;8.70;;;5.68;;
81217;SDS011;70689;52.494;13.420;2023-10-09T10:21:32;7.95;;;5.55;;
81217;SDS011;70689;52.494;13.420;2023-10-09T10:24:03;7.63;;;5.28;;
81217;SDS011;70689;52.494;13.420;2023-10-09T10:26:35;8.43;;;5.43;;
81217;SDS011;70689;52.494;13.420;2023-10-09T10:29:13;8.95;;;5.15;;
81217;SDS011;70689;52.494;13.420;2023-10-09T10:31:58;10.35;;;5.25;;
81217;SDS011;70689;52.494;13.420;2023-10-09T10:35:08;10.15;;;5.93;;
81217;SDS011;70689;52.494;13.420;2023-10-09T10:37:37;9.85;;;5.32;;
81217;SDS011;70689;52.494;13.420;2023-10-09T10:40:24;9.25;;;6.03;;
81217;SDS011;70689;52.494;13.420;2023-10-09T10:43:14;8.52;;;5.50;;
81217;SDS011;70689;52.494;13.420;2023-10-09T10:48:48;10.02;;;5.65;;
81217;SDS011;70689;52.494;13.420;2023-10-09T10:51:43;12.13;;;5.60;;
81217;SDS011;70689;52.494;13.420;2023-10-09T10:54:24;9.07;;;5.97;;
81217;SDS011;70689;52.494;13.420;2023-10-09T10:56:56;8.73;;;6.40;;
81217;SDS011;70689;52.494;13.420;2023-10-09T10:59:23;13.00;;;6.32;;
81217;SDS011;70689;52.494;13.420;2023-10-09T11:01:52;11.60;;;6.32;;
81217;SDS011;70689;52.494;13.420;2023-10-09T11:04:22;9.57;;;6.18;;
81217;SDS011;70689;52.494;13.420;2023-10-09T11:06:58;10.55;;;5.90;;
81217;SDS011;70689;52.494;13.420;2023-10-09T11:12:42;11.75;;;6.97;;
81217;SDS011;70689;52.494;13.420;2023-10-09T11:15:29;8.32;;;6.22;;
81217;SDS011;70689;52.494;13.420;2023-10-09T11:18:09;7.88;;;5.80;;
81217;SDS011;70689;52.494;13.420;2023-10-09T11:20:44;11.20;;;5.88;;
81217;SDS011;70689;52.494;13.420;2023-10-09T11:23:27;7.10;;;5.07;;
81217;SDS011;70689;52.494;13.420;2023-10-09T11:25:59;10.32;;;6.07;;
81217;SDS011;70689;52.494;13.420;2023-10-09T11:28:45;13.43;;;8.32;;
81217;SDS011;70689;52.494;13.420;2023-10-09T11:31:36;8.68;;;5.82;;
81217;SDS011;70689;52.494;13.420;2023-10-09T11:34:03;14.50;;;10.68;;
81217;SDS011;70689;52.494;13.420;2023-10-09T11:36:45;9.18;;;6.80;;
81217;SDS011;70689;52.494;13.420;2023-10-09T11:39:23;13.30;;;6.82;;
81217;SDS011;70689;52.494;13.420;2023-10-09T11:44:38;9.57;;;6.80;;
81217;SDS011;70689;52.494;13.420;2023-10-09T11:47:10;9.60;;;7.18;;
81217;SDS011;70689;52.494;13.420;2023-10-09T11:49:52;11.25;;;7.07;;
81217;SDS011;70689;52.494;13.420;2023-10-09T11:52:28;9.75;;;6.70;;
81217;SDS011;70689;52.494;13.420;2023-10-09T11:54:58;10.45;;;7.55;;
81217;SDS011;70689;52.494;13.420;2023-10-09T11:57:24;10.00;;;7.65;;
81217;SDS011;70689;52.494;13.420;2023-10-09T11:59:56;10.52;;;7.30;;
81217;SDS011;70689;52.494;13.420;2023-10-09T12:02:23;9.55;;;7.13;;
81217;SDS011;70689;52.494;13.420;2023-10-09T12:04:49;27.77;;;9.45;;
81217;SDS011;70689;52.494;13.420;2023-10-09T12:07:14;9.38;;;7.03;;
81217;SDS011;70689;52.494;13.420;2023-10-09T12:09:40;10.50;;;7.78;;
81217;SDS011;70689;52.494;13.420;2023-10-09T12:12:06;9.90;;;6.65;;
81217;SDS011;70689;52.494;13.420;2023-10-09T12:14:34;8.05;;;6.53;;
81217;SDS011;70689;52.494;13.420;2023-10-09T12:17:06;8.43;;;6.25;;
81217;SDS011;70689;52.494;13.420;2023-10-09T12:22:03;8.82;;;6.05;;
81217;SDS011;70689;52.494;13.420;2023-10-09T12:24:41;13.20;;;7.30;;
81217;SDS011;70689;52.494;13.420;2023-10-09T12:27:08;15.55;;;7.40;;
81217;SDS011;70689;52.494;13.420;2023-10-09T12:29:36;9.77;;;7.10;;
81217;SDS011;70689;52.494;13.420;2023-10-09T12:32:03;10.38;;;6.75;;
81217;SDS011;70689;52.494;13.420;2023-10-09T12:34:30;8.45;;;6.60;;
81217;SDS011;70689;52.494;13.420;2023-10-09T12:36:56;9.52;;;7.05;;
81217;SDS011;70689;52.494;13.420;2023-10-09T12:39:26;11.60;;;8.10;;
81217;SDS011;70689;52.494;13.420;2023-10-09T12:41:58;9.93;;;7.83;;
81217;SDS011;70689;52.494;13.420;2023-10-09T12:44:31;12.02;;;7.78;;
81217;SDS011;70689;52.494;13.420;2023-10-09T12:47:04;11.15;;;7.80;;
81217;SDS011;70689;52.494;13.420;2023-10-09T12:49:31;10.70;;;8.10;;
81217;SDS011;70689;52.494;13.420;2023-10-09T12:51:56;11.20;;;8.60;;
81217;SDS011;70689;52.494;13.420;2023-10-09T12:54:25;14.23;;;9.50;;
81217;SDS011;70689;52.494;13.420;2023-10-09T12:56:54;14.48;;;9.82;;
81217;SDS011;70689;52.494;13.420;2023-10-09T12:59:20;19.00;;;10.40;;
81217;SDS011;70689;52.494;13.420;2023-10-09T13:01:47;15.55;;;9.60;;
81217;SDS011;70689;52.494;13.420;2023-10-09T13:04:17;13.63;;;9.00;;
81217;SDS011;70689;52.494;13.420;2023-10-09T13:06:47;17.13;;;12.00;;
81217;SDS011;70689;52.494;13.420;2023-10-09T13:09:17;13.02;;;9.25;;
81217;SDS011;70689;52.494;13.420;2023-10-09T13:12:06;12.45;;;9.02;;
81217;SDS011;70689;52.494;13.420;2023-10-09T13:14:43;12.50;;;9.00;;
81217;SDS011;70689;52.494;13.420;2023-10-09T13:17:10;13.55;;;10.10;;
81217;SDS011;70689;52.494;13.420;2023-10-09T13:19:36;14.07;;;9.45;;
81217;SDS011;70689;52.494;13.420;2023-10-09T13:22:02;13.55;;;9.27;;
81217;SDS011;70689;52.494;13.420;2023-10-09T13:24:29;25.90;;;15.27;;
81217;SDS011;70689;52.494;13.420;2023-10-09T13:26:55;17.67;;;12.80;;
81217;SDS011;70689;52.494;13.420;2023-10-09T13:29:23;14.40;;;10.63;;
81217;SDS011;70689;52.494;13.420;2023-10-09T13:31:49;14.20;;;9.65;;
81217;SDS011;70689;52.494;13.420;2023-10-09T13:34:17;10.57;;;8.52;;
81217;SDS011;70689;52.494;13.420;2023-10-09T13:36:44;13.13;;;9.85;;
81217;SDS011;70689;52.494;13.420;2023-10-09T13:39:18;12.75;;;8.48;;
81217;SDS011;70689;52.494;13.420;2023-10-09T13:44:23;12.05;;;8.57;;
81217;SDS011;70689;52.494;13.420;2023-10-09T13:46:56;10.52;;;8.63;;
81217;SDS011;70689;52.494;13.420;2023-10-09T13:49:22;13.23;;;9.48;;
81217;SDS011;70689;52.494;13.420;2023-10-09T13:51:48;23.20;;;16.48;;
81217;SDS011;70689;52.494;13.420;2023-10-09T13:54:15;11.32;;;8.65;;
81217;SDS011;70689;52.494;13.420;2023-10-09T13:56:53;15.20;;;11.02;;
81217;SDS011;70689;52.494;13.420;2023-10-09T13:59:20;13.80;;;9.32;;
81217;SDS011;70689;52.494;13.420;2023-10-09T14:01:47;12.32;;;8.93;;
81217;SDS011;70689;52.494;13.420;2023-10-09T14:04:14;13.02;;;8.55;;
81217;SDS011;70689;52.494;13.420;2023-10-09T14:06:45;14.90;;;8.82;;
81217;SDS011;70689;52.494;13.420;2023-10-09T14:09:12;11.90;;;9.13;;
81217;SDS011;70689;52.494;13.420;2023-10-09T14:11:55;11.27;;;7.90;;
81217;SDS011;70689;52.494;13.420;2023-10-09T14:14:42;15.60;;;8.40;;
81217;SDS011;70689;52.494;13.420;2023-10-09T14:17:15;11.40;;;8.27;;
81217;SDS011;70689;52.494;13.420;2023-10-09T14:19:48;12.80;;;9.10;;
81217;SDS011;70689;52.494;13.420;2023-10-09T14:22:25;12.85;;;9.18;;
81217;SDS011;70689;52.494;13.420;2023-10-09T14:24:51;13.23;;;8.52;;
81217;SDS011;70689;52.494;13.420;2023-10-09T14:27:21;11.30;;;8.02;;
81217;SDS011;70689;52.494;13.420;2023-10-09T14:29:52;12.57;;;9.07;;
81217;SDS011;70689;52.494;13.420;2023-10-09T14:32:24;12.10;;;8.13;;
81217;SDS011;70689;52.494;13.420;2023-10-09T14:35:02;17.10;;;11.10;;
81217;SDS011;70689;52.494;13.420;2023-10-09T14:37:38;10.90;;;8.73;;
81217;SDS011;70689;52.494;13.420;2023-10-09T14:40:05;17.63;;;11.10;;
81217;SDS011;70689;52.494;13.420;2023-10-09T14:42:37;20.42;;;11.63;;
81217;SDS011;70689;52.494;13.420;2023-10-09T14:45:09;12.18;;;8.73;;
81217;SDS011;70689;52.494;13.420;2023-10-09T14:47:40;12.00;;;8.23;;
81217;SDS011;70689;52.494;13.420;2023-10-09T14:50:11;11.35;;;8.23;;
81217;SDS011;70689;52.494;13.420;2023-10-09T14:52:38;11.18;;;8.50;;
81217;SDS011;70689;52.494;13.420;2023-10-09T14:55:05;11.35;;;9.10;;
81217;SDS011;70689;52.494;13.420;2023-10-09T14:57:31;13.73;;;9.00;;
81217;SDS011;70689;52.494;13.420;2023-10-09T14:59:59;15.85;;;10.00;;
81217;SDS011;70689;52.494;13.420;2023-10-09T15:02:25;15.15;;;9.93;;
81217;SDS011;70689;52.494;13.420;2023-10-09T15:04:50;13.93;;;9.88;;
81217;SDS011;70689;52.494;13.420;2023-10-09T15:07:18;16.98;;;12.02;;
81217;SDS011;70689;52.494;13.420;2023-10-09T15:09:43;12.13;;;9.38;;
81217;SDS011;70689;52.494;13.420;2023-10-09T15:12:09;14.32;;;10.05;;
81217;SDS011;70689;52.494;13.420;2023-10-09T15:14:36;13.18;;;10.52;;
81217;SDS011;70689;52.494;13.420;2023-10-09T15:17:04;18.40;;;11.00;;
81217;SDS011;70689;52.494;13.420;2023-10-09T15:19:31;15.07;;;10.98;;
81217;SDS011;70689;52.494;13.420;2023-10-09T15:21:58;13.90;;;10.65;;
81217;SDS011;70689;52.494;13.420;2023-10-09T15:24:24;14.15;;;10.50;;
81217;SDS011;70689;52.494;13.420;2023-10-09T15:26:52;14.98;;;10.70;;
81217;SDS011;70689;52.494;13.420;2023-10-09T15:29:22;18.15;;;11.55;;
81217;SDS011;70689;52.494;13.420;2023-10-09T15:31:55;12.80;;;10.52;;
81217;SDS011;70689;52.494;13.420;2023-10-09T15:34:30;13.23;;;9.93;;
81217;SDS011;70689;52.494;13.420;2023-10-09T15:37:01;12.52;;;9.57;;
81217;SDS011;70689;52.494;13.420;2023-10-09T15:39:29;15.50;;;10.35;;
81217;SDS011;70689;52.494;13.420;2023-10-09T15:41:56;14.35;;;9.85;;
81217;SDS011;70689;52.494;13.420;2023-10-09T15:44:22;14.25;;;9.50;;
81217;SDS011;70689;52.494;13.420;2023-10-09T15:46:50;14.30;;;10.32;;